Time;durP1;ratioP1;P1;durP2;ratioP2;P2;SDS_P1;SDS_P2;PMS_P1;PMS_P2;Temp;Humidity;BMP_temperature;BMP_pressure;BME280_temperature;BME280_humidity;BME280_pressure;Samples;Min_cycle;Max_cycle;Signal;HPM_P1;HPM_P2
2023/07/19 00:01:10;;;;;;;9.20;5.20;;;;;;;24.13;60.24;97210.81;5014183;28;20672;-70
2023/07/19 00:03:35;;;;;;;6.33;4.60;;;;;;;24.09;60.43;97209.69;5006589;28;20689;-72
2023/07/19 00:06:01;;;;;;;5.77;4.90;;;;;;;24.02;60.43;97209.84;5008631;28;20538;-70
2023/07/19 00:08:27;;;;;;;4.90;4.50;;;;;;;24.02;60.60;97206.34;5008923;28;20645;-73
2023/07/19 00:10:53;;;;;;;5.63;5.00;;;;;;;24.00;60.64;97203.13;5007192;28;20267;-73
2023/07/19 00:13:18;;;;;;;6.83;5.33;;;;;;;23.98;60.39;97199.84;5007630;28;20423;-74
2023/07/19 00:15:44;;;;;;;6.47;5.03;;;;;;;23.97;61.08;97201.72;5008656;28;20175;-71
2023/07/19 00:18:09;;;;;;;6.80;4.80;;;;;;;23.96;60.99;97196.59;4993008;28;20185;-71
2023/07/19 00:20:35;;;;;;;6.50;5.10;;;;;;;23.96;60.96;97189.38;4992881;28;20188;-73
2023/07/19 00:23:00;;;;;;;9.13;4.70;;;;;;;23.98;60.95;97197.19;5015949;28;20237;-71
2023/07/19 00:25:26;;;;;;;5.20;4.70;;;;;;;23.95;60.85;97186.91;5014745;28;20367;-71
2023/07/19 00:27:51;;;;;;;8.77;4.97;;;;;;;23.91;61.21;97186.59;5015146;28;20186;-71
2023/07/19 00:30:17;;;;;;;4.93;4.50;;;;;;;23.93;61.16;97193.31;5016959;28;20176;-73
2023/07/19 00:32:43;;;;;;;6.93;4.20;;;;;;;23.96;61.25;97186.69;5017446;28;20173;-72
2023/07/19 00:35:08;;;;;;;6.83;5.07;;;;;;;23.97;60.78;97182.97;5014384;28;20192;-70
2023/07/19 00:37:34;;;;;;;5.40;4.90;;;;;;;23.95;60.90;97190.38;5012317;28;20180;-71
2023/07/19 00:39:59;;;;;;;7.90;4.77;;;;;;;23.92;60.99;97188.22;5013056;28;20275;-71
2023/07/19 00:42:25;;;;;;;6.80;4.70;;;;;;;23.89;60.96;97199.38;5014664;28;20275;-70
2023/07/19 00:44:50;;;;;;;6.70;5.23;;;;;;;23.85;60.58;97192.88;5010735;28;20208;-69
2023/07/19 00:47:16;;;;;;;6.53;5.23;;;;;;;23.78;60.77;97182.31;5008450;28;20172;-69
2023/07/19 00:49:44;;;;;;;11.20;5.10;;;;;;;23.73;61.10;97185.72;4991117;28;20275;-70
2023/07/19 00:52:09;;;;;;;7.97;4.93;;;;;;;23.64;61.38;97189.81;5001519;28;20239;-72
2023/07/19 00:54:36;;;;;;;6.20;5.10;;;;;;;23.66;61.47;97193.06;5008317;28;20467;-71
2023/07/19 00:57:03;;;;;;;5.70;5.00;;;;;;;23.71;61.32;97198.50;5011753;28;20702;-71
2023/07/19 00:59:29;;;;;;;6.23;4.57;;;;;;;23.70;61.48;97191.53;5007966;28;20430;-72
2023/07/19 01:01:54;;;;;;;7.90;5.17;;;;;;;23.73;61.55;97200.97;5013439;28;20955;-72
2023/07/19 01:04:20;;;;;;;7.50;5.50;;;;;;;23.74;61.28;97195.34;5012380;28;20299;-71
2023/07/19 01:06:45;;;;;;;7.10;5.07;;;;;;;23.69;61.25;97187.22;5012224;28;20173;-71
2023/07/19 01:09:12;;;;;;;8.23;5.20;;;;;;;23.66;61.32;97194.91;5013611;28;20175;-70
2023/07/19 01:11:37;;;;;;;7.70;4.90;;;;;;;23.66;61.44;97201.09;5013936;28;20188;-70
2023/07/19 01:14:02;;;;;;;5.90;4.57;;;;;;;23.67;61.39;97202.72;5010573;28;20576;-69
2023/07/19 01:16:28;;;;;;;9.33;5.10;;;;;;;23.71;61.53;97203.84;5014517;28;20267;-70
2023/07/19 01:18:55;;;;;;;13.20;5.50;;;;;;;23.75;61.54;97197.00;5013117;28;20189;-71
2023/07/19 01:21:21;;;;;;;6.00;4.80;;;;;;;23.74;61.04;97203.38;5012622;28;20235;-70
2023/07/19 01:23:47;;;;;;;11.77;6.67;;;;;;;23.71;61.56;97205.72;5010874;28;20920;-71
2023/07/19 01:26:12;;;;;;;10.83;6.13;;;;;;;23.70;61.58;97207.56;5011569;28;20518;-71
2023/07/19 01:28:38;;;;;;;9.53;5.23;;;;;;;23.67;61.50;97202.72;5011799;28;20211;-72
2023/07/19 01:31:04;;;;;;;7.83;4.73;;;;;;;23.66;61.31;97189.56;5010823;28;20711;-70
2023/07/19 01:33:30;;;;;;;7.80;5.13;;;;;;;23.64;61.50;97187.13;5011083;28;20219;-69
2023/07/19 01:35:55;;;;;;;7.53;4.97;;;;;;;23.63;61.44;97199.69;5009654;28;20424;-69
2023/07/19 01:38:21;;;;;;;5.53;5.03;;;;;;;23.62;60.80;97194.59;5011543;28;20279;-70
2023/07/19 01:40:46;;;;;;;10.93;5.40;;;;;;;23.63;61.34;97185.50;5013103;28;20203;-74
2023/07/19 01:43:11;;;;;;;8.00;5.33;;;;;;;23.60;61.25;97180.63;4993079;28;20251;-71
2023/07/19 01:45:37;;;;;;;8.50;5.83;;;;;;;23.56;61.35;97184.84;5009755;28;20630;-71
2023/07/19 01:48:02;;;;;;;9.13;6.37;;;;;;;23.51;61.63;97180.19;5014588;28;20268;-70
2023/07/19 01:50:29;;;;;;;9.67;6.97;;;;;;;23.55;61.58;97180.53;5011451;28;20185;-69
2023/07/19 01:52:54;;;;;;;7.47;5.97;;;;;;;23.54;61.32;97177.03;5010264;28;20267;-71
2023/07/19 01:55:20;;;;;;;13.50;8.90;;;;;;;23.58;61.47;97188.06;5010843;28;20994;-71
2023/07/19 01:57:45;;;;;;;8.73;7.13;;;;;;;23.60;61.03;97196.69;5014019;28;20177;-73
2023/07/19 02:00:11;;;;;;;11.87;7.60;;;;;;;23.55;60.81;97196.59;5010847;28;20218;-72
2023/07/19 02:02:36;;;;;;;8.57;7.10;;;;;;;23.53;61.22;97191.47;5010771;28;20267;-72
2023/07/19 02:05:02;;;;;;;8.97;5.27;;;;;;;23.47;60.80;97187.88;5010858;28;20323;-72
2023/07/19 02:07:27;;;;;;;13.00;6.50;;;;;;;23.47;61.03;97187.06;5012991;28;20191;-74
2023/07/19 02:09:53;;;;;;;7.33;6.60;;;;;;;23.42;60.79;97190.44;5012563;28;20315;-73
2023/07/19 02:12:18;;;;;;;7.90;5.50;;;;;;;23.41;60.81;97204.03;5011380;28;20212;-72
2023/07/19 02:14:44;;;;;;;8.03;5.50;;;;;;;23.41;60.41;97204.03;5010001;28;20283;-74
2023/07/19 02:17:10;;;;;;;14.67;4.80;;;;;;;23.37;60.16;97202.91;5010049;28;20264;-72
2023/07/19 02:19:35;;;;;;;9.00;5.40;;;;;;;23.23;60.04;97210.34;5019563;28;20682;-72
2023/07/19 02:22:01;;;;;;;6.33;5.70;;;;;;;23.28;60.54;97218.47;5012647;28;20420;-72
2023/07/19 02:24:26;;;;;;;9.40;5.73;;;;;;;23.23;60.29;97219.19;5009854;28;20204;-73
2023/07/19 02:26:52;;;;;;;11.10;5.80;;;;;;;23.23;60.07;97213.84;5012227;28;21434;-71
2023/07/19 02:29:17;;;;;;;8.90;5.23;;;;;;;23.30;60.33;97213.72;5021530;28;20259;-71
2023/07/19 02:31:42;;;;;;;14.97;5.53;;;;;;;23.33;60.31;97215.09;5017012;28;20279;-73
2023/07/19 02:34:08;;;;;;;5.90;5.30;;;;;;;23.38;60.45;97221.38;5010049;28;20287;-70
2023/07/19 02:36:34;;;;;;;11.00;5.70;;;;;;;23.42;59.91;97219.88;5009898;28;20180;-70
2023/07/19 02:39:03;;;;;;;7.50;5.60;;;;;;;23.45;59.65;97221.25;5007455;28;20189;-72
2023/07/19 02:41:29;;;;;;;9.70;5.00;;;;;;;23.48;59.95;97218.13;5010312;28;20230;-71
2023/07/19 02:43:54;;;;;;;10.63;5.17;;;;;;;23.51;59.83;97214.16;5009462;28;20436;-73
2023/07/19 02:46:20;;;;;;;9.60;5.73;;;;;;;23.51;59.38;97208.78;5013908;28;20466;-71
2023/07/19 02:48:45;;;;;;;8.50;5.57;;;;;;;23.50;59.16;97215.19;5008622;28;20210;-74
2023/07/19 02:51:11;;;;;;;10.93;6.30;;;;;;;23.44;59.15;97222.28;5009772;28;20192;-71
2023/07/19 02:53:37;;;;;;;13.97;5.70;;;;;;;23.40;59.35;97224.63;5010797;28;20198;-72
2023/07/19 02:56:02;;;;;;;10.40;5.70;;;;;;;23.36;59.49;97234.16;5009550;28;20172;-70
2023/07/19 02:58:28;;;;;;;8.53;5.60;;;;;;;23.30;59.60;97227.09;5009904;28;20430;-72
2023/07/19 03:00:54;;;;;;;9.27;5.03;;;;;;;23.23;60.05;97234.41;5010206;28;20671;-73
2023/07/19 03:03:20;;;;;;;6.73;5.60;;;;;;;23.21;60.32;97240.00;5012503;28;20415;-73
2023/07/19 03:05:45;;;;;;;5.67;5.07;;;;;;;23.20;60.13;97232.19;5008143;28;20212;-71
2023/07/19 03:08:11;;;;;;;8.80;5.60;;;;;;;23.15;59.99;97239.03;5009035;28;20184;-72
2023/07/19 03:10:37;;;;;;;9.60;5.10;;;;;;;23.08;60.30;97235.66;4997745;28;20176;-73
2023/07/19 03:13:02;;;;;;;7.03;5.30;;;;;;;23.07;60.24;97234.00;5007643;28;20701;-72
2023/07/19 03:15:32;;;;;;;8.80;5.20;;;;;;;23.07;60.42;97231.34;5012228;28;20191;-71
2023/07/19 03:18:03;;;;;;;6.30;5.10;;;;;;;23.04;60.28;97239.00;5006582;28;20188;-74
2023/07/19 03:20:30;;;;;;;10.93;5.47;;;;;;;23.00;60.13;97238.66;5006352;28;20427;-73
2023/07/19 03:22:56;;;;;;;7.87;5.10;;;;;;;22.95;60.30;97236.69;5009042;28;20432;-72
2023/07/19 03:25:21;;;;;;;7.07;4.97;;;;;;;;;;5008758;28;20489;-72
2023/07/19 03:27:47;;;;;;;7.17;5.10;;;;;;;22.93;60.34;97240.66;5003440;28;20481;-71
2023/07/19 03:30:14;;;;;;;5.23;4.47;;;;;;;22.89;60.54;97245.63;5006745;28;20268;-71
2023/07/19 03:32:39;;;;;;;7.00;5.00;;;;;;;22.84;60.36;97246.31;5008405;28;20226;-70
2023/07/19 03:35:05;;;;;;;5.93;4.53;;;;;;;22.83;60.35;97239.34;5007613;28;20435;-71
2023/07/19 03:37:31;;;;;;;6.27;5.20;;;;;;;22.82;60.78;97236.91;5007190;28;20264;-72
2023/07/19 03:39:56;;;;;;;10.07;5.77;;;;;;;22.78;60.60;97249.91;5011319;28;20514;-73
2023/07/19 03:42:21;;;;;;;9.97;5.50;;;;;;;22.78;60.46;97252.59;5009588;28;20180;-71
2023/07/19 03:44:47;;;;;;;7.57;4.90;;;;;;;22.78;60.33;97249.91;5015287;28;20219;-71
2023/07/19 03:47:12;;;;;;;7.23;5.20;;;;;;;22.79;60.45;97256.91;5006886;28;20265;-71
2023/07/19 03:49:38;;;;;;;7.90;5.53;;;;;;;22.80;60.51;97258.53;5008869;28;20176;-71
2023/07/19 03:52:04;;;;;;;8.90;5.00;;;;;;;22.79;59.88;97262.25;5012647;28;20179;-72
2023/07/19 03:54:29;;;;;;;8.50;5.13;;;;;;;22.76;60.12;97264.53;5007331;28;20200;-70
2023/07/19 03:56:55;;;;;;;10.83;5.40;;;;;;;22.70;60.11;97264.41;5008331;28;20280;-73
2023/07/19 03:59:20;;;;;;;9.27;5.47;;;;;;;22.73;60.20;97259.66;5008030;28;20200;-71
2023/07/19 04:01:45;;;;;;;7.50;5.47;;;;;;;22.69;60.13;97261.97;5007238;28;20185;-71
2023/07/19 04:04:11;;;;;;;6.20;5.50;;;;;;;22.61;60.11;97270.31;5011349;28;20291;-72
2023/07/19 04:06:36;;;;;;;7.87;4.97;;;;;;;22.60;60.38;97269.50;5008095;28;20671;-69
2023/07/19 04:09:02;;;;;;;9.33;4.63;;;;;;;22.60;60.47;97264.16;5007703;28;20202;-71
2023/07/19 04:11:28;;;;;;;8.30;5.33;;;;;;;22.63;60.49;97266.34;5011036;28;20183;-71
2023/07/19 04:13:54;;;;;;;7.03;5.40;;;;;;;22.61;60.61;97267.63;5011111;28;20463;-73
2023/07/19 04:16:19;;;;;;;7.13;5.60;;;;;;;22.54;60.62;97265.06;5006809;28;20462;-72
2023/07/19 04:18:45;;;;;;;10.63;5.13;;;;;;;22.54;60.86;97267.75;5013179;28;20180;-72
2023/07/19 04:21:10;;;;;;;9.50;5.10;;;;;;;22.56;60.74;97268.31;5007085;28;20594;-72
2023/07/19 04:23:35;;;;;;;8.53;5.20;;;;;;;22.54;60.57;97270.41;5009330;28;20630;-71
2023/07/19 04:26:01;;;;;;;9.30;5.60;;;;;;;22.51;60.73;97268.19;5007736;28;20294;-71
2023/07/19 04:28:26;;;;;;;5.57;4.83;;;;;;;22.54;60.91;97265.06;5014201;28;20176;-71
2023/07/19 04:30:52;;;;;;;14.57;5.53;;;;;;;22.59;60.73;97267.06;5006981;28;20271;-70
2023/07/19 04:33:17;;;;;;;9.23;5.30;;;;;;;22.62;60.48;97264.72;4994291;28;20694;-71
2023/07/19 04:35:43;;;;;;;9.43;5.40;;;;;;;22.67;60.70;97266.75;5011493;28;20641;-71
2023/07/19 04:38:08;;;;;;;10.10;4.90;;;;;;;22.69;60.27;97272.66;5014182;28;20208;-72
2023/07/19 04:40:33;;;;;;;6.57;5.07;;;;;;;22.66;60.55;97267.78;5016517;28;20247;-70
2023/07/19 04:42:59;;;;;;;14.73;5.57;;;;;;;22.60;60.51;97266.00;5007534;28;20553;-72
2023/07/19 04:45:25;;;;;;;10.23;5.23;;;;;;;22.64;60.63;97264.53;5015619;28;20214;-71
2023/07/19 04:47:50;;;;;;;7.27;5.63;;;;;;;22.63;60.48;97262.88;5016966;28;20272;-72
2023/07/19 04:50:16;;;;;;;7.00;5.30;;;;;;;22.67;60.82;97266.75;5012270;28;20199;-72
2023/07/19 04:52:45;;;;;;;9.73;5.13;;;;;;;22.73;60.69;97263.13;5013938;28;20176;-71
2023/07/19 04:55:11;;;;;;;7.63;4.87;;;;;;;22.79;60.79;97266.75;5011030;28;20306;-72
2023/07/19 04:57:37;;;;;;;6.20;5.60;;;;;;;22.81;60.84;97262.78;5012492;28;20430;-72
2023/07/19 05:00:05;;;;;;;8.17;5.03;;;;;;;22.89;60.91;97258.19;5018391;28;20422;-70
2023/07/19 05:02:30;;;;;;;6.80;5.23;;;;;;;22.94;60.79;97252.94;5007554;28;20181;-72
2023/07/19 05:04:56;;;;;;;11.10;5.37;;;;;;;22.98;60.90;97249.59;5010341;28;20455;-72
2023/07/19 05:07:21;;;;;;;8.00;4.80;;;;;;;23.00;60.87;97249.34;5009009;28;20287;-72
2023/07/19 05:09:46;;;;;;;6.27;5.67;;;;;;;23.06;61.12;97244.94;5008227;28;20202;-72
2023/07/19 05:12:12;;;;;;;6.13;5.20;;;;;;;23.08;60.75;97243.66;5011932;28;20268;-73
2023/07/19 05:14:37;;;;;;;12.00;5.57;;;;;;;23.12;60.88;97234.16;5011979;28;20288;-72
2023/07/19 05:17:03;;;;;;;10.80;5.37;;;;;;;23.14;60.98;97237.41;5010739;28;20212;-72
2023/07/19 05:19:28;;;;;;;5.60;4.83;;;;;;;23.19;61.23;97239.38;5010202;28;20184;-73
2023/07/19 05:21:54;;;;;;;9.80;5.80;;;;;;;23.22;61.34;97240.78;5014064;28;20183;-72
2023/07/19 05:24:19;;;;;;;9.10;5.73;;;;;;;23.29;60.94;97244.19;5010628;28;20244;-72
2023/07/19 05:26:46;;;;;;;8.10;5.33;;;;;;;23.37;61.16;97241.13;5011015;28;20184;-73
2023/07/19 05:29:11;;;;;;;7.87;5.40;;;;;;;23.45;60.73;97235.41;5011449;28;20185;-72
2023/07/19 05:31:36;;;;;;;9.60;5.90;;;;;;;23.53;60.53;97239.59;5010841;28;20960;-71
2023/07/19 05:34:03;;;;;;;13.40;5.60;;;;;;;23.63;60.30;97241.69;5009798;28;20562;-71
2023/07/19 05:36:28;;;;;;;8.87;5.63;;;;;;;23.72;60.64;97240.25;5007610;28;20263;-72
2023/07/19 05:38:54;;;;;;;9.33;5.30;;;;;;;23.83;60.49;97233.25;5010678;28;20493;-73
2023/07/19 05:41:20;;;;;;;6.83;5.50;;;;;;;23.93;60.36;97232.66;5011564;28;20188;-72
2023/07/19 05:43:45;;;;;;;8.03;5.60;;;;;;;24.05;60.16;97230.78;5012461;28;20975;-74
2023/07/19 05:46:11;;;;;;;6.77;4.97;;;;;;;24.17;60.12;97238.75;5011861;28;20342;-71
2023/07/19 05:48:36;;;;;;;5.40;4.60;;;;;;;24.31;59.90;97243.81;5012645;28;20264;-70
2023/07/19 05:51:04;;;;;;;8.70;5.57;;;;;;;24.44;59.42;97227.44;5013717;28;20181;-72
2023/07/19 05:53:30;;;;;;;14.70;4.90;;;;;;;24.58;58.42;97237.84;5011431;28;20270;-73
2023/07/19 05:55:56;;;;;;;11.73;4.63;;;;;;;24.71;58.43;97234.06;5010020;28;20432;-71
2023/07/19 05:58:22;;;;;;;8.13;4.60;;;;;;;24.83;57.36;97240.16;5012089;28;20259;-72
2023/07/19 06:00:47;;;;;;;6.73;4.47;;;;;;;24.92;56.67;97244.09;5013855;28;20912;-71
2023/07/19 06:03:16;;;;;;;8.13;5.00;;;;;;;25.03;55.78;97241.56;5008453;28;20805;-72
2023/07/19 06:05:42;;;;;;;5.23;4.33;;;;;;;25.15;55.03;97240.38;5010132;28;20303;-71
2023/07/19 06:08:08;;;;;;;6.23;3.93;;;;;;;25.29;54.66;97243.56;5010172;28;20427;-69
2023/07/19 06:10:33;;;;;;;5.93;4.67;;;;;;;25.41;54.12;97248.81;5009409;28;20518;-72
2023/07/19 06:12:59;;;;;;;5.40;4.33;;;;;;;25.54;53.39;97250.34;5008830;28;20322;-72
2023/07/19 06:15:24;;;;;;;7.70;4.20;;;;;;;25.66;52.49;97255.59;5009276;28;20220;-71
2023/07/19 06:17:50;;;;;;;13.93;4.13;;;;;;;25.78;52.09;97255.47;5009145;28;20747;-71
2023/07/19 06:20:15;;;;;;;6.70;4.20;;;;;;;25.90;51.52;97253.50;5014145;28;20194;-72
2023/07/19 06:22:41;;;;;;;6.20;4.10;;;;;;;26.03;51.20;97251.47;5008546;28;20184;-71
2023/07/19 06:25:06;;;;;;;7.83;4.50;;;;;;;26.12;50.42;97255.38;5007874;28;20246;-70
2023/07/19 06:27:32;;;;;;;10.87;3.80;;;;;;;26.19;50.39;97250.63;5009326;28;20642;-71
2023/07/19 06:29:58;;;;;;;5.30;3.80;;;;;;;26.29;49.83;97251.78;5012968;28;20291;-71
2023/07/19 06:32:24;;;;;;;4.70;3.60;;;;;;;26.33;48.90;97263.66;5008964;28;20185;-72
2023/07/19 06:34:49;;;;;;;6.73;3.73;;;;;;;26.37;48.06;97256.69;5009439;28;21004;-71
2023/07/19 06:37:14;;;;;;;6.70;4.40;;;;;;;26.46;48.44;97262.44;5008469;28;20195;-70
2023/07/19 06:39:40;;;;;;;8.37;5.00;;;;;;;26.46;47.51;97262.44;5011405;28;20276;-72
2023/07/19 06:42:05;;;;;;;11.30;4.20;;;;;;;26.60;47.87;97262.81;5009516;28;20180;-71
2023/07/19 06:44:31;;;;;;;9.63;4.30;;;;;;;26.73;47.81;97259.72;5009088;28;20216;-72
2023/07/19 06:46:58;;;;;;;6.50;4.70;;;;;;;26.86;48.08;97255.00;5009420;28;20184;-71
2023/07/19 06:49:24;;;;;;;5.73;4.00;;;;;;;26.98;48.03;97261.00;5009748;28;20274;-72
2023/07/19 06:51:49;;;;;;;5.70;4.67;;;;;;;27.11;47.95;97257.09;5013505;28;20906;-72
2023/07/19 06:54:15;;;;;;;8.37;4.40;;;;;;;27.25;48.00;97265.50;5008116;28;20212;-72
2023/07/19 06:56:40;;;;;;;10.27;4.63;;;;;;;27.38;47.53;97265.06;5009219;28;20188;-71
2023/07/19 06:59:06;;;;;;;7.10;4.30;;;;;;;27.51;47.54;97258.44;5014182;28;20180;-71
2023/07/19 07:01:31;;;;;;;13.23;4.20;;;;;;;27.60;46.29;97266.81;5011898;28;20335;-72
2023/07/19 07:03:57;;;;;;;9.67;3.60;;;;;;;27.71;46.39;97265.81;5009865;28;20295;-72
2023/07/19 07:06:22;;;;;;;5.60;3.50;;;;;;;27.79;45.10;97269.06;5012358;28;20247;-71
2023/07/19 07:08:48;;;;;;;8.97;3.70;;;;;;;27.83;44.51;97270.16;5009440;28;20271;-71
2023/07/19 07:11:13;;;;;;;9.80;3.30;;;;;;;27.95;44.46;97261.84;5009211;28;20693;-70
2023/07/19 07:13:39;;;;;;;9.23;4.20;;;;;;;28.07;44.76;97269.72;5011772;28;20649;-72
2023/07/19 07:16:04;;;;;;;9.13;3.57;;;;;;;28.12;43.24;97258.97;5009102;28;20184;-74
2023/07/19 07:18:30;;;;;;;5.03;3.10;;;;;;;28.19;43.39;97256.84;5008522;28;20180;-72
2023/07/19 07:20:55;;;;;;;5.63;3.33;;;;;;;28.28;42.54;97263.34;5013464;28;20305;-73
2023/07/19 07:23:21;;;;;;;3.63;3.30;;;;;;;28.39;42.17;97266.03;5010978;28;20211;-72
2023/07/19 07:25:53;;;;;;;8.70;3.00;;;;;;;28.49;42.13;97260.66;5008672;28;20204;-71
2023/07/19 07:28:19;;;;;;;7.40;3.03;;;;;;;28.62;41.11;97268.22;5012750;28;20434;-71
2023/07/19 07:30:44;;;;;;;5.80;3.10;;;;;;;28.78;40.79;97277.19;5008810;28;20434;-71
2023/07/19 07:33:09;;;;;;;5.83;3.30;;;;;;;28.87;39.44;97277.44;5010566;28;20176;-70
2023/07/19 07:35:35;;;;;;;5.67;3.20;;;;;;;29.00;38.38;97270.72;5008271;28;20204;-72
2023/07/19 07:38:00;;;;;;;7.10;2.73;;;;;;;29.11;37.88;97274.22;5011453;28;20275;-71
2023/07/19 07:40:26;;;;;;;7.47;2.90;;;;;;;29.27;37.93;97273.09;5009544;28;20193;-70
2023/07/19 07:42:51;;;;;;;7.50;2.80;;;;;;;29.38;36.10;97275.81;5004825;28;20185;-72
2023/07/19 07:45:17;;;;;;;15.40;2.60;;;;;;;29.46;36.52;97280.66;5015162;28;20746;-71
2023/07/19 07:47:43;;;;;;;5.93;2.63;;;;;;;29.57;35.95;97276.84;5009054;28;20188;-70
2023/07/19 07:50:09;;;;;;;6.20;2.20;;;;;;;29.68;35.10;97280.31;5010886;28;20204;-70
2023/07/19 07:52:35;;;;;;;6.93;3.10;;;;;;;29.83;34.65;97278.66;5011151;28;20649;-69
2023/07/19 07:55:01;;;;;;;4.70;2.30;;;;;;;29.98;34.57;97280.53;5009419;28;20442;-70
2023/07/19 07:57:26;;;;;;;3.50;2.23;;;;;;;30.13;33.90;97274.25;5008216;28;20793;-71
2023/07/19 07:59:52;;;;;;;6.03;2.50;;;;;;;30.26;33.55;97278.22;5012260;28;20223;-70
2023/07/19 08:02:17;;;;;;;9.57;2.50;;;;;;;30.37;32.04;97279.75;5008168;28;20187;-70
2023/07/19 08:04:43;;;;;;;8.67;2.37;;;;;;;30.47;32.05;97287.00;5010086;28;20699;-70
2023/07/19 08:07:08;;;;;;;6.00;1.90;;;;;;;30.52;31.48;97276.19;5012675;28;20747;-72
2023/07/19 08:09:34;;;;;;;8.30;1.90;;;;;;;30.63;31.05;97283.16;5008320;28;20238;-70
2023/07/19 08:11:59;;;;;;;5.63;2.40;;;;;;;30.77;31.41;97275.19;5007902;28;20187;-70
2023/07/19 08:14:25;;;;;;;5.40;2.67;;;;;;;30.91;30.69;97283.50;5008400;28;20236;-71
2023/07/19 08:16:53;;;;;;;5.90;1.70;;;;;;;30.91;28.89;97290.78;5007379;28;20187;-71
2023/07/19 08:19:18;;;;;;;5.33;1.60;;;;;;;30.98;29.03;97291.28;5009903;28;20192;-70
2023/07/19 08:21:44;;;;;;;9.37;1.77;;;;;;;31.03;28.87;97285.03;5011786;28;20514;-69
2023/07/19 08:24:09;;;;;;;11.30;1.70;;;;;;;31.03;29.08;97288.53;5007818;28;20214;-71
2023/07/19 08:26:34;;;;;;;1.63;1.53;;;;;;;30.95;28.38;97281.03;5020451;28;20685;-71
2023/07/19 08:29:00;;;;;;;3.00;1.80;;;;;;;30.89;28.44;97279.44;5011696;28;20218;-71
2023/07/19 08:31:25;;;;;;;6.27;1.40;;;;;;;30.88;27.92;97273.22;5008399;28;20275;-71
2023/07/19 08:33:52;;;;;;;4.53;1.70;;;;;;;30.89;28.50;97266.72;5007120;28;20216;-71
2023/07/19 08:36:18;;;;;;;4.40;1.50;;;;;;;30.91;27.58;97267.25;5009347;28;20197;-72
2023/07/19 08:38:43;;;;;;;4.90;1.50;;;;;;;31.00;28.79;97267.44;5011953;28;21002;-71
2023/07/19 08:41:11;;;;;;;5.67;1.87;;;;;;;31.10;28.60;97275.50;5012192;28;20188;-70
2023/07/19 08:43:37;;;;;;;2.07;1.60;;;;;;;31.29;28.53;97263.97;5007141;28;20192;-72
2023/07/19 08:46:03;;;;;;;6.00;1.67;;;;;;;31.36;27.54;97263.63;5008275;28;20543;-71
2023/07/19 08:48:31;;;;;;;3.57;1.60;;;;;;;31.38;27.87;97266.84;5011122;28;20522;-73
2023/07/19 08:50:59;;;;;;;5.20;1.33;;;;;;;31.46;26.97;97260.00;5014767;28;20565;-72
2023/07/19 08:53:25;;;;;;;5.83;1.57;;;;;;;31.45;25.75;97263.81;5008601;28;20517;-73
2023/07/19 08:55:51;;;;;;;3.63;1.63;;;;;;;31.53;26.51;97266.69;5008289;28;20419;-72
2023/07/19 08:58:17;;;;;;;5.13;1.53;;;;;;;31.61;25.04;97256.31;5007742;28;20439;-69
2023/07/19 09:00:45;;;;;;;4.53;1.63;;;;;;;31.74;25.36;97260.28;5007802;28;20261;-72
2023/07/19 09:03:11;;;;;;;1.70;1.60;;;;;;;31.90;25.65;97250.03;5002497;28;20468;-70
2023/07/19 09:05:38;;;;;;;4.30;1.30;;;;;;;32.06;25.14;97251.47;5010663;28;20956;-70
2023/07/19 09:08:04;;;;;;;4.33;1.47;;;;;;;32.22;25.29;97251.25;5013215;28;20216;-71
2023/07/19 09:10:30;;;;;;;3.37;1.60;;;;;;;32.36;24.52;97246.72;5006582;28;20976;-72
2023/07/19 09:12:55;;;;;;;2.93;1.83;;;;;;;32.48;24.88;97240.88;5006735;28;20463;-72
2023/07/19 09:15:21;;;;;;;1.37;1.27;;;;;;;32.61;24.59;97240.13;5013609;28;20204;-71
2023/07/19 09:17:48;;;;;;;2.70;1.83;;;;;;;32.62;24.29;97232.78;5009756;28;20211;-70
2023/07/19 09:20:15;;;;;;;2.87;1.70;;;;;;;32.73;24.55;97233.44;5012508;28;20184;-73
2023/07/19 09:22:40;;;;;;;2.77;1.63;;;;;;;32.79;24.25;97229.50;5014134;28;20428;-71
2023/07/19 09:25:09;;;;;;;2.37;1.70;;;;;;;32.92;23.53;97228.78;5006138;28;20474;-73
2023/07/19 09:27:34;;;;;;;2.10;1.70;;;;;;;32.93;23.61;97229.59;5011138;28;20180;-73
2023/07/19 09:30:00;;;;;;;4.83;1.83;;;;;;;33.05;23.67;97227.22;5009486;28;20419;-71
2023/07/19 09:32:25;;;;;;;4.10;1.60;;;;;;;32.99;23.09;97227.59;5009801;28;20275;-70
2023/07/19 09:34:55;;;;;;;2.40;1.87;;;;;;;33.04;23.21;97227.50;5010532;28;20526;-70
2023/07/19 09:37:24;;;;;;;4.47;1.80;;;;;;;33.10;23.18;97229.03;5021455;28;20207;-71
2023/07/19 09:39:51;;;;;;;3.53;1.60;;;;;;;33.17;22.77;97210.44;5011052;28;20481;-69
2023/07/19 09:42:17;;;;;;;5.30;1.83;;;;;;;33.31;22.87;97215.06;5016774;28;20415;-71
2023/07/19 09:44:45;;;;;;;1.87;1.47;;;;;;;33.45;22.91;97221.34;5009187;28;20872;-72
2023/07/19 09:47:10;;;;;;;3.73;1.50;;;;;;;33.59;22.09;97221.31;5010864;28;20871;-70
2023/07/19 09:49:36;;;;;;;4.83;1.43;;;;;;;33.65;21.97;97217.41;5013775;28;20447;-70
2023/07/19 09:52:03;;;;;;;2.70;1.50;;;;;;;33.78;22.17;97218.50;5009193;28;20223;-72
2023/07/19 09:54:31;;;;;;;3.60;1.33;;;;;;;33.89;21.95;97213.69;5013112;28;20848;-70
2023/07/19 09:56:56;;;;;;;2.60;1.60;;;;;;;33.93;22.10;97216.59;5010280;28;20416;-70
2023/07/19 09:59:33;;;;;;;2.73;1.40;;;;;;;33.94;22.57;97218.19;5014081;28;20415;-71
2023/07/19 10:01:59;;;;;;;4.00;1.80;;;;;;;34.03;22.98;97208.22;5011595;28;20187;-72
2023/07/19 10:04:26;;;;;;;3.80;2.00;;;;;;;33.98;22.92;97211.84;5008186;28;20498;-71
2023/07/19 10:07:12;;;;;;;7.13;1.50;;;;;;;33.98;22.92;97214.56;5012350;28;20208;-70
2023/07/19 10:09:43;;;;;;;2.30;1.67;;;;;;;34.00;22.22;97206.13;5010281;28;20955;-70
2023/07/19 10:12:14;;;;;;;6.20;1.70;;;;;;;34.17;22.79;97199.22;5010372;28;20837;-71
2023/07/19 10:14:40;;;;;;;5.37;1.60;;;;;;;34.28;22.32;97195.97;5009891;28;20447;-71
2023/07/19 10:17:06;;;;;;;3.77;1.23;;;;;;;34.06;23.04;97204.09;4994504;28;20774;-71
2023/07/19 10:19:31;;;;;;;5.00;1.97;;;;;;;34.32;23.65;97200.78;5011996;28;20272;-71
2023/07/19 10:22:04;;;;;;;5.73;1.60;;;;;;;34.57;23.00;97196.66;5014098;28;20533;-71
2023/07/19 10:24:31;;;;;;;6.07;2.13;;;;;;;34.54;21.99;97200.81;5010116;28;20224;-71
2023/07/19 10:27:02;;;;;;;9.57;2.17;;;;;;;34.42;21.61;97190.47;5009515;28;20436;-70
2023/07/19 10:29:40;;;;;;;11.63;2.50;;;;;;;34.57;22.71;97191.22;5009354;28;20430;-71
2023/07/19 10:32:07;;;;;;;4.37;2.00;;;;;;;34.74;22.74;97190.53;5009561;28;20501;-71
2023/07/19 10:34:33;;;;;;;4.10;1.60;;;;;;;34.90;22.69;97188.25;5010044;28;20936;-72
2023/07/19 10:37:06;;;;;;;2.17;1.67;;;;;;;34.99;22.81;97189.09;5011210;28;20430;-71
2023/07/19 10:39:31;;;;;;;3.83;1.57;;;;;;;34.86;22.39;97187.25;5013399;28;20191;-71
2023/07/19 10:41:58;;;;;;;3.03;2.00;;;;;;;34.87;21.93;97186.13;5012683;28;20411;-74
2023/07/19 10:44:26;;;;;;;2.20;1.57;;;;;;;34.81;22.12;97190.09;5009526;28;20290;-74
2023/07/19 10:46:53;;;;;;;4.50;2.00;;;;;;;34.85;22.12;97180.19;5015454;28;20417;-71
2023/07/19 10:49:18;;;;;;;9.40;2.00;;;;;;;34.74;22.76;97183.19;5009748;28;20549;-73
2023/07/19 10:51:57;;;;;;;3.47;1.77;;;;;;;34.60;22.53;97185.97;5012636;28;20512;-72
2023/07/19 10:54:23;;;;;;;3.60;1.57;;;;;;;34.48;22.59;97171.34;5015744;28;20211;-71
2023/07/19 10:56:50;;;;;;;3.33;1.60;;;;;;;34.49;22.43;97172.94;5013116;28;20510;-71
2023/07/19 10:59:16;;;;;;;2.40;1.80;;;;;;;34.32;22.80;97171.66;4996031;28;20179;-71
2023/07/19 11:01:41;;;;;;;4.50;1.93;;;;;;;34.24;23.14;97175.13;5009245;28;20453;-70
2023/07/19 11:04:07;;;;;;;3.77;1.80;;;;;;;34.23;23.15;97177.03;5008113;28;20216;-71
2023/07/19 11:06:35;;;;;;;4.80;2.17;;;;;;;34.43;22.50;97172.25;5013716;28;20265;-71
2023/07/19 11:09:13;;;;;;;10.50;2.00;;;;;;;34.35;22.87;97168.34;5016917;28;20180;-72
2023/07/19 11:11:41;;;;;;;2.13;1.67;;;;;;;34.55;22.35;97177.94;5028621;28;20824;-71
2023/07/19 11:14:07;;;;;;;3.83;2.00;;;;;;;34.46;22.56;97174.38;4992114;28;20442;-73
2023/07/19 11:16:33;;;;;;;6.90;2.30;;;;;;;34.27;22.66;97174.53;5008769;28;20237;-71
2023/07/19 11:18:59;;;;;;;5.37;1.87;;;;;;;34.10;22.85;97170.56;5025577;28;20556;-71
2023/07/19 11:21:28;;;;;;;8.63;2.30;;;;;;;33.92;23.33;97169.59;4995900;28;20521;-72
2023/07/19 11:23:54;;;;;;;6.07;1.97;;;;;;;33.72;23.34;97162.66;4991184;28;20684;-72
2023/07/19 11:26:20;;;;;;;2.87;1.73;;;;;;;33.57;23.82;97169.25;5010010;28;20549;-71